Time;durP1;ratioP1;P1;durP2;ratioP2;P2;SDS_P1;SDS_P2;PMS_P1;PMS_P2;Temp;Humidity;BMP_temperature;BMP_pressure;BME280_temperature;BME280_humidity;BME280_pressure;Samples;Min_cycle;Max_cycle;Signal;HPM_P1;HPM_P2
2021/06/18 00:01:57;;;;;;;13.45;12.07;;;21.20;99.90;;;;;;4969560;28;20058;-87
2021/06/18 00:04:22;;;;;;;14.25;12.95;;;21.20;99.90;;;;;;4953323;28;20423;-74
2021/06/18 00:06:48;;;;;;;17.55;14.10;;;21.20;99.90;;;;;;4953639;28;20467;-78
2021/06/18 00:09:14;;;;;;;15.77;14.18;;;21.10;99.90;;;;;;4961820;28;20035;-84
2021/06/18 00:11:40;;;;;;;16.45;14.65;;;21.10;99.90;;;;;;4954105;29;20394;-77
2021/06/18 00:14:06;;;;;;;16.60;14.60;;;21.10;99.90;;;;;;4948684;28;20027;-85
2021/06/18 00:16:33;;;;;;;18.55;15.52;;;21.00;99.90;;;;;;4972806;28;20034;-82
2021/06/18 00:18:59;;;;;;;16.10;14.60;;;21.00;99.90;;;;;;4971479;28;20027;-82
2021/06/18 00:21:24;;;;;;;21.73;15.60;;;21.00;99.90;;;;;;4971468;28;20034;-78
2021/06/18 00:23:50;;;;;;;19.60;15.82;;;20.90;99.90;;;;;;4972116;28;20059;-78
2021/06/18 00:26:15;;;;;;;17.70;15.82;;;20.90;99.90;;;;;;4956065;28;20503;-79
2021/06/18 00:28:42;;;;;;;18.48;16.40;;;20.90;99.90;;;;;;4970822;28;20027;-78
2021/06/18 00:31:08;;;;;;;17.90;16.05;;;20.90;99.90;;;;;;4971976;28;20113;-78
2021/06/18 00:33:34;;;;;;;19.50;17.25;;;20.80;99.90;;;;;;4951013;28;20027;-78
2021/06/18 00:36:00;;;;;;;20.60;18.63;;;20.80;99.90;;;;;;4972961;28;20042;-80
2021/06/18 00:38:25;;;;;;;17.88;15.88;;;20.80;99.90;;;;;;4968062;28;20502;-92
2021/06/18 00:40:51;;;;;;;20.95;18.80;;;20.80;99.90;;;;;;4973705;28;20031;-91
2021/06/18 00:43:17;;;;;;;21.83;19.52;;;20.80;99.90;;;;;;4971505;28;20031;-89
2021/06/18 00:45:42;;;;;;;20.23;17.90;;;20.80;99.90;;;;;;4973650;28;20376;-81
2021/06/18 00:48:09;;;;;;;20.23;18.17;;;20.70;99.90;;;;;;4978942;28;20118;-78
2021/06/18 00:50:35;;;;;;;20.95;18.95;;;20.70;99.90;;;;;;4957821;28;20129;-89
2021/06/18 00:53:01;;;;;;;22.05;19.92;;;20.70;99.90;;;;;;4959363;28;20058;-85
2021/06/18 00:55:27;;;;;;;20.05;18.10;;;20.70;99.90;;;;;;4962831;28;20030;-75
2021/06/18 00:57:53;;;;;;;21.15;18.85;;;20.70;99.90;;;;;;4983195;28;20077;-87
2021/06/18 01:00:20;;;;;;;21.77;19.75;;;20.70;99.90;;;;;;4956248;28;20027;-75
2021/06/18 01:02:45;;;;;;;20.60;18.50;;;20.70;99.90;;;;;;4953765;28;20730;-88
2021/06/18 01:05:14;;;;;;;23.50;21.20;;;20.60;99.90;;;;;;4972006;28;20023;-82
2021/06/18 01:07:47;;;;;;;21.20;19.10;;;20.60;99.90;;;;;;4955791;28;20023;-83
2021/06/18 01:10:19;;;;;;;22.88;20.55;;;20.60;99.90;;;;;;4972455;28;20031;-80
2021/06/18 01:13:01;;;;;;;23.27;20.98;;;20.50;99.90;;;;;;4972992;28;20023;-83
2021/06/18 01:15:39;;;;;;;22.63;20.50;;;20.50;99.90;;;;;;4973319;28;20061;-77
2021/06/18 01:18:11;;;;;;;22.83;20.67;;;20.50;99.90;;;;;;4971991;28;20034;-86
2021/06/18 01:21:01;;;;;;;22.45;20.20;;;20.50;99.90;;;;;;4973558;28;20027;-82
2021/06/18 01:23:29;;;;;;;22.77;20.70;;;20.40;99.90;;;;;;4954770;28;20047;-87
2021/06/18 01:26:24;;;;;;;22.58;20.27;;;20.40;99.90;;;;;;4956055;28;20490;-82
2021/06/18 01:28:54;;;;;;;23.52;21.25;;;20.40;99.90;;;;;;4959193;28;20059;-88
2021/06/18 01:31:22;;;;;;;23.15;20.80;;;20.30;99.90;;;;;;4976444;28;20093;-89
2021/06/18 01:33:52;;;;;;;23.60;21.30;;;20.30;99.90;;;;;;4958961;28;20072;-81
2021/06/18 01:36:21;;;;;;;24.77;21.17;;;20.30;99.90;;;;;;4976471;28;20062;-78
2021/06/18 01:38:47;;;;;;;22.13;19.77;;;20.30;99.90;;;;;;4975681;28;20027;-81
2021/06/18 01:41:18;;;;;;;23.65;21.35;;;20.30;99.90;;;;;;4976668;28;20161;-82
2021/06/18 01:43:45;;;;;;;21.25;19.20;;;20.30;99.90;;;;;;4975750;28;20027;-74
2021/06/18 01:46:16;;;;;;;21.05;18.92;;;20.20;99.90;;;;;;4958484;28;20026;-87
2021/06/18 01:48:45;;;;;;;;;;;20.30;99.90;;;;;;4976526;28;20076;-81
2021/06/18 01:51:12;;;;;;;23.33;21.00;;;20.30;99.90;;;;;;4975861;28;19918;-86
2021/06/18 01:53:42;;;;;;;22.02;19.83;;;20.20;99.90;;;;;;4975552;28;20026;-75
2021/06/18 01:56:09;;;;;;;23.08;20.73;;;20.20;99.90;;;;;;4958480;28;20117;-74
2021/06/18 01:58:34;;;;;;;23.27;20.80;;;20.20;99.90;;;;;;4975457;28;20027;-79
2021/06/18 02:01:01;;;;;;;25.25;22.98;;;20.20;99.90;;;;;;4975317;28;20034;-78
2021/06/18 02:03:28;;;;;;;25.25;22.65;;;20.20;99.90;;;;;;4974738;28;20530;-82
2021/06/18 02:05:57;;;;;;;26.25;23.65;;;20.20;99.90;;;;;;4975336;28;20026;-87
2021/06/18 02:08:24;;;;;;;25.38;22.98;;;20.20;99.90;;;;;;4959163;28;20530;-80
2021/06/18 02:10:51;;;;;;;25.20;22.90;;;20.20;99.90;;;;;;4975406;28;20030;-84
2021/06/18 02:13:19;;;;;;;25.63;23.27;;;20.20;99.90;;;;;;4974918;28;20029;-82
2021/06/18 02:15:47;;;;;;;25.50;22.88;;;20.20;99.90;;;;;;4957979;28;20019;-81
2021/06/18 02:18:17;;;;;;;23.77;21.52;;;20.20;99.90;;;;;;4975751;28;20034;-86
2021/06/18 02:20:44;;;;;;;25.02;22.48;;;20.30;99.90;;;;;;4957353;28;20030;-83
2021/06/18 02:23:11;;;;;;;23.60;21.48;;;20.30;99.90;;;;;;4973178;28;20092;-85
2021/06/18 02:25:38;;;;;;;23.63;21.42;;;20.40;99.90;;;;;;4975202;28;20106;-84
2021/06/18 02:28:06;;;;;;;27.15;24.38;;;20.40;99.90;;;;;;4974435;28;20027;-80
2021/06/18 02:30:32;;;;;;;26.38;23.83;;;20.40;99.90;;;;;;4958148;28;20046;-85
2021/06/18 02:32:59;;;;;;;26.27;23.60;;;20.40;99.90;;;;;;4975162;28;20026;-82
2021/06/18 02:35:26;;;;;;;24.85;22.52;;;20.40;99.90;;;;;;4957615;28;20019;-87
2021/06/18 02:37:52;;;;;;;24.15;21.95;;;20.40;99.90;;;;;;4957470;28;20023;-80
2021/06/18 02:40:19;;;;;;;24.73;22.42;;;20.40;99.90;;;;;;4958103;28;20023;-84
2021/06/18 02:42:45;;;;;;;24.10;21.90;;;20.40;99.90;;;;;;4956698;28;20026;-80
2021/06/18 02:45:11;;;;;;;24.02;21.73;;;20.30;99.90;;;;;;4957597;28;20027;-77
2021/06/18 02:47:44;;;;;;;22.80;20.50;;;20.30;99.90;;;;;;4957254;28;20026;-79
2021/06/18 02:50:23;;;;;;;23.77;21.50;;;20.30;99.90;;;;;;4957685;28;20058;-78
2021/06/18 02:53:00;;;;;;;23.10;20.90;;;20.30;99.90;;;;;;4974691;28;20061;-74
2021/06/18 02:55:54;;;;;;;24.25;21.95;;;20.20;99.90;;;;;;4957037;28;20027;-75
2021/06/18 02:58:24;;;;;;;24.63;22.00;;;20.20;99.90;;;;;;4970427;28;20081;-73
2021/06/18 03:00:51;;;;;;;25.88;23.33;;;20.20;99.90;;;;;;4957611;28;20035;-75
2021/06/18 03:03:25;;;;;;;23.92;21.55;;;20.20;99.90;;;;;;4936296;29;20106;-84
2021/06/18 03:05:56;;;;;;;24.77;22.25;;;20.20;99.90;;;;;;4954904;29;20077;-78
2021/06/18 03:08:28;;;;;;;24.95;22.55;;;20.10;99.90;;;;;;4938274;29;20057;-80
2021/06/18 03:10:54;;;;;;;25.55;23.13;;;20.10;99.90;;;;;;4936824;29;20035;-78
2021/06/18 03:13:26;;;;;;;25.45;23.05;;;20.10;99.90;;;;;;4938352;29;20069;-74
2021/06/18 03:15:51;;;;;;;;;;;20.10;99.90;;;;;;4954163;29;20051;-81
2021/06/18 03:18:23;;;;;;;25.40;22.67;;;20.00;99.90;;;;;;4953988;29;19949;-87
2021/06/18 03:20:56;;;;;;;24.73;22.33;;;20.00;99.90;;;;;;4937429;29;20460;-88
2021/06/18 03:23:22;;;;;;;25.33;22.92;;;20.00;99.90;;;;;;4937166;29;20082;-76
2021/06/18 03:25:49;;;;;;;28.33;25.23;;;20.00;99.90;;;;;;4954718;29;20034;-74
2021/06/18 03:28:16;;;;;;;26.63;24.23;;;20.00;99.90;;;;;;4937894;29;20368;-85
2021/06/18 03:30:47;;;;;;;27.42;24.80;;;20.00;99.90;;;;;;4937183;29;20493;-86
2021/06/18 03:33:12;;;;;;;25.60;22.97;;;20.10;99.90;;;;;;4955056;29;20023;-87
2021/06/18 03:35:39;;;;;;;26.80;24.20;;;20.20;99.90;;;;;;4937596;29;20613;-77
2021/06/18 03:38:05;;;;;;;25.02;22.52;;;20.20;99.90;;;;;;4953945;29;20016;-75
2021/06/18 03:40:34;;;;;;;25.85;23.25;;;20.20;99.90;;;;;;4954748;29;20119;-88
2021/06/18 03:43:00;;;;;;;26.13;23.63;;;20.30;99.90;;;;;;4940618;28;20022;-78
2021/06/18 03:45:26;;;;;;;26.70;24.23;;;20.40;99.90;;;;;;4948932;28;20015;-83
2021/06/18 03:47:53;;;;;;;28.08;25.38;;;20.50;99.90;;;;;;4971304;28;20082;-82
2021/06/18 03:50:21;;;;;;;26.85;23.95;;;20.50;99.90;;;;;;4954732;28;20487;-87
2021/06/18 03:52:47;;;;;;;25.85;23.25;;;20.60;99.90;;;;;;4954375;28;20508;-74
2021/06/18 03:55:13;;;;;;;22.63;20.55;;;20.70;99.90;;;;;;4966916;28;20109;-82
2021/06/18 03:57:42;;;;;;;24.17;21.95;;;20.80;99.90;;;;;;4971947;28;20029;-82
2021/06/18 04:00:09;;;;;;;24.15;21.77;;;20.90;99.90;;;;;;4955639;28;20027;-76
2021/06/18 04:02:36;;;;;;;26.63;23.92;;;21.00;99.90;;;;;;4956085;28;20509;-85
2021/06/18 04:05:03;;;;;;;25.17;22.70;;;21.10;99.90;;;;;;4955414;28;20533;-84
2021/06/18 04:07:30;;;;;;;23.73;21.33;;;21.20;99.90;;;;;;4973388;28;20030;-83
2021/06/18 04:09:57;;;;;;;25.35;22.90;;;21.30;99.90;;;;;;4973064;28;20034;-84
2021/06/18 04:12:23;;;;;;;24.20;21.60;;;21.40;99.90;;;;;;4973207;28;20491;-78
2021/06/18 04:14:49;;;;;;;24.45;22.00;;;21.50;99.90;;;;;;4973404;28;20033;-78
2021/06/18 04:17:14;;;;;;;26.27;23.13;;;21.50;99.90;;;;;;4956036;28;20499;-79
2021/06/18 04:19:42;;;;;;;26.40;23.90;;;21.50;99.90;;;;;;4955331;28;20030;-73
2021/06/18 04:22:10;;;;;;;27.25;24.33;;;21.50;99.90;;;;;;4973119;28;20057;-74
2021/06/18 04:24:35;;;;;;;27.83;23.83;;;21.30;99.90;;;;;;4959748;28;20038;-73
2021/06/18 04:27:01;;;;;;;24.55;22.02;;;21.30;99.90;;;;;;4954310;28;20035;-78
2021/06/18 04:29:28;;;;;;;19.63;17.55;;;21.20;99.90;;;;;;4955857;28;20058;-76
2021/06/18 04:31:53;;;;;;;15.63;14.07;;;21.20;99.90;;;;;;4954421;28;20039;-72
2021/06/18 04:34:19;;;;;;;16.60;14.85;;;21.20;99.90;;;;;;4972362;28;20042;-72
2021/06/18 04:36:45;;;;;;;20.08;18.08;;;21.40;99.90;;;;;;4972480;28;20023;-71
2021/06/18 04:39:11;;;;;;;18.50;16.60;;;21.40;99.90;;;;;;4972535;28;20038;-71
2021/06/18 04:41:36;;;;;;;22.42;19.95;;;21.50;99.90;;;;;;4963435;28;20060;-80
2021/06/18 04:44:03;;;;;;;19.35;17.45;;;21.40;99.90;;;;;;4952944;28;20152;-73
2021/06/18 04:46:29;;;;;;;19.75;17.92;;;21.40;99.90;;;;;;4954054;28;20027;-73
2021/06/18 04:48:54;;;;;;;18.83;17.02;;;21.40;99.90;;;;;;4935286;29;20113;-74
2021/06/18 04:51:20;;;;;;;18.23;16.42;;;21.40;99.90;;;;;;4949406;28;20169;-73
2021/06/18 04:53:46;;;;;;;19.15;17.33;;;21.30;99.90;;;;;;4955459;28;20415;-73
2021/06/18 04:56:13;;;;;;;21.25;19.02;;;21.20;99.90;;;;;;4991668;28;20105;-72
2021/06/18 04:58:39;;;;;;;23.33;20.83;;;21.10;99.90;;;;;;4991874;28;20030;-73
2021/06/18 05:01:05;;;;;;;63.95;26.70;;;21.00;99.90;;;;;;4989293;28;20031;-73
2021/06/18 05:03:31;;;;;;;40.75;29.70;;;20.70;99.90;;;;;;4964471;28;20861;-71
2021/06/18 05:05:57;;;;;;;39.22;29.70;;;20.40;99.90;;;;;;4961738;28;20039;-72
2021/06/18 05:08:22;;;;;;;39.15;33.55;;;20.10;99.90;;;;;;4965031;28;20031;-71
2021/06/18 05:10:48;;;;;;;37.78;32.20;;;20.00;99.90;;;;;;4943923;29;20035;-71
2021/06/18 05:13:14;;;;;;;39.28;34.20;;;19.80;99.90;;;;;;4969529;28;20368;-83
2021/06/18 05:15:39;;;;;;;42.72;34.88;;;19.60;99.90;;;;;;4975170;28;20806;-76
2021/06/18 05:18:05;;;;;;;40.33;34.47;;;19.60;99.90;;;;;;4975663;28;20051;-73
2021/06/18 05:20:31;;;;;;;122.70;53.33;;;19.60;99.90;;;;;;4964167;28;20493;-73
2021/06/18 05:22:56;;;;;;;45.60;40.60;;;19.60;99.90;;;;;;4974877;28;20101;-78
2021/06/18 05:25:22;;;;;;;45.38;40.47;;;19.70;99.90;;;;;;4976080;28;20035;-73
2021/06/18 05:27:48;;;;;;;47.60;42.45;;;19.80;99.90;;;;;;4958237;28;20019;-74
2021/06/18 05:30:16;;;;;;;50.30;41.47;;;19.80;99.90;;;;;;4974893;28;20174;-79
2021/06/18 05:32:42;;;;;;;46.42;41.45;;;19.70;99.90;;;;;;4958243;28;20034;-72
2021/06/18 05:35:08;;;;;;;47.35;41.28;;;19.70;99.90;;;;;;4975252;28;20030;-77
2021/06/18 05:37:33;;;;;;;45.97;40.60;;;19.70;99.90;;;;;;4974825;28;20023;-81
2021/06/18 05:39:59;;;;;;;49.47;43.67;;;19.80;99.90;;;;;;4974862;28;20113;-74
2021/06/18 05:42:24;;;;;;;49.15;43.83;;;19.90;99.90;;;;;;4974629;28;20027;-77
2021/06/18 05:44:50;;;;;;;50.97;45.58;;;20.00;99.90;;;;;;4973026;28;20043;-77
2021/06/18 05:47:16;;;;;;;47.20;42.28;;;20.00;99.90;;;;;;4975458;28;20035;-79
2021/06/18 05:49:41;;;;;;;45.92;41.05;;;20.00;99.90;;;;;;4975162;28;20031;-76
2021/06/18 05:52:07;;;;;;;46.92;41.08;;;20.10;99.90;;;;;;4957104;28;20039;-89
2021/06/18 05:54:33;;;;;;;45.70;40.90;;;20.00;99.90;;;;;;4958212;28;20023;-76
2021/06/18 05:56:58;;;;;;;44.88;40.25;;;20.00;99.90;;;;;;4975015;28;20034;-76
2021/06/18 05:59:24;;;;;;;46.03;41.13;;;20.10;99.90;;;;;;4974287;28;20029;-79
2021/06/18 06:01:49;;;;;;;44.20;39.60;;;20.10;99.90;;;;;;4974465;28;20046;-75
2021/06/18 06:04:15;;;;;;;43.90;39.33;;;20.10;99.90;;;;;;4957579;28;20471;-73
2021/06/18 06:06:40;;;;;;;43.28;38.97;;;20.10;99.90;;;;;;4974499;28;20026;-77
2021/06/18 06:09:06;;;;;;;44.75;40.35;;;20.10;99.90;;;;;;4957021;28;20125;-79
2021/06/18 06:11:33;;;;;;;43.63;39.42;;;20.20;99.90;;;;;;4973050;28;20035;-76
2021/06/18 06:14:03;;;;;;;43.65;39.35;;;20.20;99.90;;;;;;4973009;28;20045;-80
2021/06/18 06:16:33;;;;;;;41.08;37.20;;;20.30;99.90;;;;;;4974185;28;20030;-86
2021/06/18 06:18:59;;;;;;;42.78;38.60;;;20.30;99.90;;;;;;4956502;28;20058;-79
2021/06/18 06:21:25;;;;;;;40.83;36.78;;;20.30;99.90;;;;;;4957640;28;20023;-75
2021/06/18 06:23:51;;;;;;;38.53;34.80;;;20.40;99.90;;;;;;4973100;28;20101;-75
2021/06/18 06:26:18;;;;;;;38.85;35.30;;;20.50;99.90;;;;;;4957499;28;20077;-81
2021/06/18 06:28:44;;;;;;;37.17;33.78;;;20.60;99.90;;;;;;4957746;28;20032;-72
2021/06/18 06:31:09;;;;;;;35.95;32.58;;;20.70;99.90;;;;;;4974553;28;20046;-80
2021/06/18 06:33:35;;;;;;;37.65;34.15;;;20.90;99.90;;;;;;4972152;28;20502;-76
2021/06/18 06:36:01;;;;;;;35.83;32.65;;;21.20;99.90;;;;;;4974183;28;20042;-78
2021/06/18 06:38:28;;;;;;;35.90;32.67;;;21.30;99.90;;;;;;4973462;28;20119;-82
2021/06/18 06:40:54;;;;;;;35.53;32.33;;;21.40;99.90;;;;;;4972458;28;20406;-78
2021/06/18 06:43:20;;;;;;;33.03;30.00;;;21.50;99.90;;;;;;4972704;28;20015;-82
2021/06/18 06:45:46;;;;;;;33.30;30.08;;;21.50;99.90;;;;;;4955494;28;20037;-79
2021/06/18 06:48:12;;;;;;;31.15;28.45;;;21.60;99.90;;;;;;4971294;28;20030;-83
2021/06/18 06:50:38;;;;;;;31.70;28.80;;;21.70;99.90;;;;;;4972175;28;20510;-73
2021/06/18 06:53:06;;;;;;;30.60;27.75;;;21.90;99.90;;;;;;4972554;28;20078;-77
2021/06/18 06:55:32;;;;;;;29.13;26.63;;;22.10;99.90;;;;;;4972716;28;20046;-79
2021/06/18 06:57:58;;;;;;;30.02;27.10;;;22.20;99.90;;;;;;4971910;28;20050;-77
2021/06/18 07:00:24;;;;;;;29.02;26.42;;;22.40;99.90;;;;;;4973779;28;20420;-79
2021/06/18 07:02:49;;;;;;;29.48;26.52;;;22.40;99.90;;;;;;4955628;28;20026;-72
2021/06/18 07:05:15;;;;;;;29.17;26.45;;;22.30;99.90;;;;;;4959419;28;20104;-71
2021/06/18 07:07:41;;;;;;;28.33;25.88;;;22.30;99.90;;;;;;4953323;28;20061;-75
2021/06/18 07:10:07;;;;;;;29.73;26.90;;;22.30;99.90;;;;;;4964931;28;20546;-72
2021/06/18 07:12:33;;;;;;;30.77;28.00;;;22.40;99.90;;;;;;4973901;28;20027;-73
2021/06/18 07:14:59;;;;;;;26.90;24.50;;;22.50;99.90;;;;;;4972930;28;20029;-74
2021/06/18 07:17:25;;;;;;;27.63;25.02;;;22.70;99.90;;;;;;4974125;28;20109;-75
2021/06/18 07:19:53;;;;;;;26.10;23.80;;;23.00;99.90;;;;;;4973051;28;20553;-73
2021/06/18 07:22:21;;;;;;;23.90;21.80;;;23.20;99.90;;;;;;4973127;28;20073;-78
2021/06/18 07:24:48;;;;;;;25.60;23.17;;;23.20;99.90;;;;;;4972214;28;20043;-72
2021/06/18 07:27:14;;;;;;;26.17;23.80;;;23.30;99.90;;;;;;4973924;28;20046;-74
2021/06/18 07:29:41;;;;;;;25.17;22.85;;;23.50;99.90;;;;;;4972545;28;20486;-74
2021/06/18 07:32:07;;;;;;;25.58;23.27;;;23.50;99.90;;;;;;4973361;28;20105;-73
2021/06/18 07:34:35;;;;;;;25.02;22.80;;;23.60;99.90;;;;;;4973647;28;20050;-81
2021/06/18 07:37:01;;;;;;;23.98;21.88;;;23.60;99.90;;;;;;4972856;28;20092;-82
2021/06/18 07:39:26;;;;;;;25.85;23.45;;;23.60;99.90;;;;;;4971703;28;20031;-78
2021/06/18 07:41:52;;;;;;;25.20;22.90;;;23.60;99.90;;;;;;4973148;28;20026;-82
2021/06/18 07:44:18;;;;;;;24.75;22.45;;;23.60;99.90;;;;;;4972012;28;20030;-83
2021/06/18 07:46:43;;;;;;;27.08;24.67;;;23.50;99.90;;;;;;4971490;28;20114;-72
2021/06/18 07:49:09;;;;;;;26.60;24.30;;;23.50;99.90;;;;;;4972304;28;20451;-77
2021/06/18 07:51:35;;;;;;;28.48;25.80;;;23.20;99.90;;;;;;4954365;28;20061;-79
2021/06/18 07:54:03;;;;;;;28.33;25.80;;;23.00;99.90;;;;;;4972891;28;20093;-79
2021/06/18 07:56:33;;;;;;;29.00;26.33;;;22.90;99.90;;;;;;4956668;28;20031;-78
2021/06/18 07:58:59;;;;;;;27.63;25.02;;;22.80;99.90;;;;;;4956580;28;20035;-73
2021/06/18 08:01:24;;;;;;;29.58;26.73;;;22.80;99.90;;;;;;4957491;28;20033;-82
2021/06/18 08:03:50;;;;;;;29.80;27.05;;;22.80;99.90;;;;;;4971141;28;20562;-76
2021/06/18 08:06:17;;;;;;;28.77;26.17;;;22.80;99.90;;;;;;4972799;28;20085;-74
2021/06/18 08:08:43;;;;;;;30.08;27.27;;;22.80;99.90;;;;;;4973090;28;20023;-73
2021/06/18 08:11:09;;;;;;;30.42;27.45;;;22.70;99.90;;;;;;4973161;28;20042;-72
2021/06/18 08:13:36;;;;;;;30.02;27.25;;;22.70;99.90;;;;;;4955906;28;20019;-73
2021/06/18 08:16:02;;;;;;;29.17;26.58;;;22.70;99.90;;;;;;4975664;28;20037;-83
2021/06/18 08:18:28;;;;;;;31.00;28.30;;;22.60;99.90;;;;;;4956953;28;20030;-77
2021/06/18 08:20:54;;;;;;;31.27;28.45;;;22.60;99.90;;;;;;4955300;28;20077;-75
2021/06/18 08:23:20;;;;;;;31.52;28.58;;;22.60;99.90;;;;;;4972042;28;20047;-71
2021/06/18 08:25:47;;;;;;;32.63;29.50;;;22.50;99.90;;;;;;4971499;28;20030;-74
2021/06/18 08:28:13;;;;;;;33.60;30.50;;;22.40;99.90;;;;;;4971335;28;20066;-75
2021/06/18 08:30:38;;;;;;;33.00;29.95;;;22.40;99.90;;;;;;4969056;28;20500;-78
2021/06/18 08:33:04;;;;;;;31.45;28.55;;;22.30;99.90;;;;;;4973209;28;20034;-83
2021/06/18 08:35:31;;;;;;;31.65;28.88;;;22.30;99.90;;;;;;4973184;28;20114;-72
2021/06/18 08:38:00;;;;;;;32.83;29.98;;;22.30;99.90;;;;;;4975620;28;20025;-82
2021/06/18 08:40:27;;;;;;;32.30;29.27;;;22.20;99.90;;;;;;4984146;28;20391;-77
2021/06/18 08:42:53;;;;;;;31.58;28.83;;;22.20;99.90;;;;;;4976009;28;20084;-77
2021/06/18 08:45:19;;;;;;;30.40;27.80;;;22.30;99.90;;;;;;4975897;28;20109;-72
2021/06/18 08:47:44;;;;;;;33.22;30.08;;;22.40;99.90;;;;;;4958116;28;20037;-74
2021/06/18 08:50:10;;;;;;;31.92;28.90;;;22.50;99.90;;;;;;4975858;28;20030;-75
2021/06/18 08:52:43;;;;;;;29.98;27.08;;;22.70;99.90;;;;;;4958434;28;20018;-76
2021/06/18 08:55:10;;;;;;;29.95;27.08;;;22.90;99.90;;;;;;4974528;28;20027;-73
2021/06/18 08:57:35;;;;;;;26.75;24.33;;;23.20;99.90;;;;;;4974325;28;20454;-72
2021/06/18 09:00:01;;;;;;;26.85;24.33;;;23.40;99.90;;;;;;4975857;28;20058;-78
2021/06/18 09:02:27;;;;;;;25.40;22.88;;;23.70;99.90;;;;;;4974109;28;20073;-77
2021/06/18 09:05:04;;;;;;;27.83;25.15;;;24.00;99.90;;;;;;4975619;28;20498;-74
2021/06/18 09:07:46;;;;;;;26.70;24.40;;;24.20;99.90;;;;;;4975543;28;20077;-77
2021/06/18 09:10:37;;;;;;;27.63;24.92;;;24.40;99.90;;;;;;4958292;28;20054;-77
2021/06/18 09:13:31;;;;;;;26.52;24.13;;;24.60;99.90;;;;;;4974494;28;20031;-75
2021/06/18 09:15:59;;;;;;;27.30;24.67;;;24.70;99.90;;;;;;4970736;28;20022;-78
2021/06/18 09:18:30;;;;;;;23.83;21.63;;;24.90;99.90;;;;;;4973888;28;20490;-80
2021/06/18 09:21:01;;;;;;;21.58;19.50;;;25.10;99.90;;;;;;4956367;29;20484;-75
2021/06/18 09:23:28;;;;;;;24.23;21.88;;;25.20;99.90;;;;;;4951546;28;20538;-80
2021/06/18 09:26:29;;;;;;;23.33;21.33;;;25.30;99.90;;;;;;4975074;28;20039;-77
2021/06/18 09:28:56;;;;;;;23.27;21.17;;;25.50;99.90;;;;;;4957627;28;20091;-75
2021/06/18 09:31:26;;;;;;;22.83;20.48;;;25.70;99.90;;;;;;4974490;28;20105;-75
2021/06/18 09:33:52;;;;;;;23.83;21.52;;;25.70;99.90;;;;;;4958328;28;20387;-84
2021/06/18 09:36:18;;;;;;;22.52;20.45;;;25.80;99.90;;;;;;4976633;28;20086;-78
2021/06/18 09:38:47;;;;;;;23.15;20.65;;;25.60;99.90;;;;;;4976742;28;20027;-74
2021/06/18 09:41:40;;;;;;;21.13;19.23;;;25.50;99.90;;;;;;4958908;28;20125;-87
2021/06/18 09:44:11;;;;;;;18.48;16.88;;;25.50;99.90;;;;;;4957258;28;20027;-81
2021/06/18 09:46:47;;;;;;;18.98;17.17;;;25.50;99.90;;;;;;4957294;28;20033;-82
2021/06/18 09:49:35;;;;;;;21.33;19.45;;;25.60;99.90;;;;;;4958646;28;20030;-86
2021/06/18 09:52:22;;;;;;;20.85;18.83;;;25.70;99.90;;;;;;4957415;28;20070;-83
2021/06/18 09:54:54;;;;;;;19.45;17.40;;;25.70;99.90;;;;;;4943605;28;20356;-84
2021/06/18 09:57:40;;;;;;;18.45;16.65;;;25.70;99.90;;;;;;4976826;28;20023;-82
2021/06/18 10:00:12;;;;;;;20.02;18.10;;;25.70;99.90;;;;;;4958042;28;20031;-91
2021/06/18 10:02:50;;;;;;;18.48;16.60;;;25.80;99.90;;;;;;4976611;28;20440;-93
2021/06/18 10:05:19;;;;;;;17.13;15.55;;;25.80;99.90;;;;;;4959080;28;20019;-90
2021/06/18 10:07:46;;;;;;;17.38;15.05;;;25.90;99.90;;;;;;4957982;28;20077;-81
2021/06/18 10:10:14;;;;;;;15.65;14.07;;;26.00;99.90;;;;;;4957990;28;20067;-89
2021/06/18 10:12:41;;;;;;;17.63;14.20;;;26.10;99.90;;;;;;4975201;28;20023;-76
2021/06/18 10:15:10;;;;;;;16.58;14.98;;;26.10;99.90;;;;;;4974659;28;20073;-87
2021/06/18 10:17:38;;;;;;;16.27;14.65;;;26.20;99.90;;;;;;4957270;28;20498;-78
2021/06/18 10:20:09;;;;;;;15.48;13.65;;;26.20;99.90;;;;;;4941438;28;20035;-84
2021/06/18 10:22:43;;;;;;;13.48;12.25;;;26.20;99.90;;;;;;4947100;28;20356;-79
2021/06/18 10:25:10;;;;;;;14.95;12.70;;;26.20;99.90;;;;;;4973935;28;20419;-81
2021/06/18 10:27:48;;;;;;;16.98;15.35;;;26.30;99.90;;;;;;4958778;28;20047;-87
2021/06/18 10:30:28;;;;;;;17.52;14.30;;;26.30;99.90;;;;;;4958136;28;20534;-77
2021/06/18 10:32:56;;;;;;;19.98;13.88;;;26.40;99.90;;;;;;4973797;28;20030;-74
2021/06/18 10:35:44;;;;;;;15.15;13.57;;;26.40;99.90;;;;;;4958385;28;20475;-76
2021/06/18 10:38:23;;;;;;;15.40;13.93;;;26.50;99.90;;;;;;4958383;28;20037;-82
2021/06/18 10:40:52;;;;;;;14.52;13.02;;;26.50;99.90;;;;;;4956904;28;20074;-90
2021/06/18 10:43:18;;;;;;;17.42;15.65;;;26.60;99.90;;;;;;4958098;28;20045;-83
2021/06/18 10:45:59;;;;;;;18.13;16.35;;;26.70;99.90;;;;;;4972770;28;20015;-79
2021/06/18 10:48:46;;;;;;;16.42;14.73;;;26.70;99.90;;;;;;4957766;28;20031;-85
2021/06/18 10:51:30;;;;;;;16.75;15.15;;;26.70;99.90;;;;;;4956640;28;20042;-76
2021/06/18 10:54:08;;;;;;;16.40;14.90;;;26.80;99.90;;;;;;4953140;29;20046;-82
2021/06/18 10:56:46;;;;;;;14.88;13.38;;;26.90;99.90;;;;;;4954040;29;20035;-79
2021/06/18 10:59:29;;;;;;;15.43;14.00;;;27.10;99.90;;;;;;4956441;28;20380;-82
2021/06/18 11:01:55;;;;;;;16.20;14.60;;;27.20;99.90;;;;;;4959477;28;20463;-79
2021/06/18 11:04:43;;;;;;;15.25;13.18;;;27.40;99.90;;;;;;4972614;28;20490;-75
2021/06/18 11:07:41;;;;;;;19.98;18.05;;;27.60;99.90;;;;;;4955966;28;20026;-77
2021/06/18 11:10:17;;;;;;;18.92;17.08;;;27.70;99.90;;;;;;4957122;28;20039;-90
2021/06/18 11:12:45;;;;;;;18.20;16.30;;;27.80;99.90;;;;;;4957431;28;20039;-82
2021/06/18 11:15:16;;;;;;;21.42;19.20;;;27.80;99.90;;;;;;4956745;28;20030;-80
2021/06/18 11:17:53;;;;;;;21.80;19.77;;;27.80;99.90;;;;;;4957867;28;20121;-91
2021/06/18 11:20:22;;;;;;;18.17;16.40;;;27.60;99.90;;;;;;4957960;28;20023;-79
2021/06/18 11:23:10;;;;;;;14.95;12.90;;;27.60;99.90;;;;;;4956972;28;20029;-90
2021/06/18 11:28:19;;;;;;;17.85;16.35;;;27.80;99.90;;;;;;4973047;28;20101;-73
2021/06/18 11:31:01;;;;;;;;;;;27.80;99.90;;;;;;4956387;28;20034;-73
2021/06/18 11:33:42;;;;;;;16.33;14.23;;;27.90;99.90;;;;;;4973811;28;19975;-84
2021/06/18 11:36:24;;;;;;;19.05;17.27;;;27.90;99.90;;;;;;4955180;28;20054;-81
2021/06/18 11:39:07;;;;;;;15.85;14.40;;;28.00;99.90;;;;;;4955965;28;20041;-79
2021/06/18 11:41:40;;;;;;;15.52;14.10;;;28.00;99.90;;;;;;4973673;28;20087;-80
2021/06/18 11:44:07;;;;;;;20.48;18.48;;;28.20;99.90;;;;;;4955327;28;20512;-77
2021/06/18 11:46:36;;;;;;;15.70;14.30;;;28.30;99.90;;;;;;4973668;28;20082;-82
2021/06/18 11:49:10;;;;;;;15.18;13.68;;;28.30;99.90;;;;;;4956040;28;20031;-79
2021/06/18 11:51:36;;;;;;;15.57;12.13;;;28.50;99.90;;;;;;4955813;28;20034;-76
2021/06/18 11:54:01;;;;;;;13.23;10.82;;;28.60;99.90;;;;;;4955309;28;20545;-75
2021/06/18 11:56:29;;;;;;;12.55;11.27;;;28.70;99.90;;;;;;4971615;28;20031;-79
2021/06/18 11:58:55;;;;;;;13.60;12.10;;;28.70;99.90;;;;;;4972846;28;20023;-79
2021/06/18 12:01:25;;;;;;;10.05;9.13;;;28.70;99.90;;;;;;4973387;28;20041;-84
2021/06/18 12:03:53;;;;;;;15.60;12.85;;;28.70;99.90;;;;;;4954132;28;20075;-80
2021/06/18 12:06:35;;;;;;;18.33;14.55;;;28.80;99.90;;;;;;4974096;28;20030;-85
2021/06/18 12:09:05;;;;;;;14.93;13.52;;;28.80;99.90;;;;;;4954769;28;20395;-85
2021/06/18 12:11:39;;;;;;;12.40;11.20;;;28.90;99.90;;;;;;4954042;28;20443;-84
2021/06/18 12:14:06;;;;;;;10.43;8.35;;;28.90;99.90;;;;;;4972563;28;20058;-87
2021/06/18 12:16:34;;;;;;;11.85;10.70;;;28.90;99.90;;;;;;4956053;28;20030;-75
2021/06/18 12:19:19;;;;;;;14.52;9.73;;;29.00;99.90;;;;;;4947865;28;20019;-78
2021/06/18 12:21:55;;;;;;;9.70;8.25;;;29.10;99.90;;;;;;4936190;29;20044;-81
2021/06/18 12:24:28;;;;;;;17.33;11.93;;;29.20;99.90;;;;;;4936018;29;20047;-78
2021/06/18 12:26:55;;;;;;;11.82;9.88;;;29.20;99.10;;;;;;4953385;29;20020;-79
2021/06/18 12:29:21;;;;;;;13.45;9.55;;;29.30;99.40;;;;;;4955909;28;20023;-81
2021/06/18 12:31:46;;;;;;;12.32;8.63;;;29.30;99.20;;;;;;4970694;28;20380;-80
2021/06/18 12:34:15;;;;;;;9.90;7.03;;;29.40;98.60;;;;;;4972609;28;20027;-82
2021/06/18 12:36:40;;;;;;;9.00;6.85;;;29.40;97.70;;;;;;4972743;28;20483;-74
2021/06/18 12:39:11;;;;;;;9.63;5.97;;;29.50;97.30;;;;;;4972409;28;20034;-89
2021/06/18 12:41:36;;;;;;;11.07;6.38;;;29.60;97.30;;;;;;4973010;28;20023;-80